DLH6LX LGAV-EDDM
Flight info
| Callsign | DLH6LX |
|---|---|
| Flight time | N/A |
| Altitude | 38000 |
| Route | KOR UL613 XANIS DCT DIMIS DCT PETAK DCT GLOMY DCT ELTIB DCT GORPA DCT BERTA DCT RASTA DCT REDBU Q112 NAPSA NAPSA4A |
| Aircraft | A321/M-SDE2E3FGIJ1LORWXYZ/HB1 |
Departure
| Time | 2026-05-04 15:24 |
|---|---|
| Airport | Athens Eleftherios Venizelos International Airport (LGAV) |
Arrival
| Time | N/A |
|---|---|
| Airport | Munich Airport (EDDM) |
| Time | Latitude | Longitude | Altitude | Speed | Heading |
|---|---|---|---|---|---|
| 2026-05-04 14:58 | 37.94115 | 23.95126 | 303 ft | 0 kts | 37° |
| 2026-05-04 15:13 | 37.94107 | 23.95118 | 301 ft | 4 kts | 37° |
| 2026-05-04 15:13 | 37.94088 | 23.95100 | 300 ft | 2 kts | 37° |
| 2026-05-04 15:13 | 37.94115 | 23.95126 | 302 ft | 0 kts | 37° |
| 2026-05-04 15:13 | 37.94072 | 23.95080 | 300 ft | 0 kts | 51° |
| 2026-05-04 15:14 | 37.94071 | 23.95079 | 300 ft | 2 kts | 52° |
| 2026-05-04 15:14 | 37.94061 | 23.95060 | 300 ft | 3 kts | 73° |
| 2026-05-04 15:14 | 37.94059 | 23.95041 | 300 ft | 0 kts | 118° |
| 2026-05-04 15:16 | 37.94024 | 23.95118 | 301 ft | 11 kts | 122° |
| 2026-05-04 15:17 | 37.93977 | 23.95205 | 303 ft | 13 kts | 126° |
| 2026-05-04 15:17 | 37.93861 | 23.95398 | 301 ft | 14 kts | 133° |
| 2026-05-04 15:17 | 37.93765 | 23.95390 | 300 ft | 16 kts | 214° |
| 2026-05-04 15:18 | 37.93671 | 23.95302 | 300 ft | 17 kts | 216° |
| 2026-05-04 15:18 | 37.93579 | 23.95214 | 301 ft | 15 kts | 217° |
| 2026-05-04 15:18 | 37.93491 | 23.95131 | 301 ft | 16 kts | 217° |
| 2026-05-04 15:19 | 37.93298 | 23.94948 | 302 ft | 19 kts | 216° |
| 2026-05-04 15:19 | 37.93191 | 23.94846 | 302 ft | 20 kts | 217° |
| 2026-05-04 15:19 | 37.92959 | 23.94626 | 302 ft | 22 kts | 217° |
| 2026-05-04 15:20 | 37.92835 | 23.94509 | 304 ft | 22 kts | 217° |
| 2026-05-04 15:20 | 37.92709 | 23.94389 | 303 ft | 23 kts | 217° |
| 2026-05-04 15:20 | 37.92585 | 23.94271 | 304 ft | 21 kts | 217° |
| 2026-05-04 15:20 | 37.92491 | 23.94182 | 304 ft | 15 kts | 216° |
| 2026-05-04 15:21 | 37.92420 | 23.94188 | 307 ft | 7 kts | 129° |
| 2026-05-04 15:21 | 37.92412 | 23.94215 | 305 ft | 0 kts | 100° |
| 2026-05-04 15:22 | 37.92411 | 23.94249 | 305 ft | 9 kts | 89° |
| 2026-05-04 15:23 | 37.92414 | 23.94339 | 308 ft | 11 kts | 88° |
| 2026-05-04 15:23 | 37.92450 | 23.94419 | 310 ft | 12 kts | 41° |
| 2026-05-04 15:23 | 37.92498 | 23.94465 | 308 ft | 5 kts | 37° |
| 2026-05-04 15:23 | 37.92512 | 23.94478 | 309 ft | 5 kts | 37° |
| 2026-05-04 15:24 | 37.93400 | 23.95322 | 288 ft | 151 kts | 37° |
| 2026-05-04 15:24 | 37.95312 | 23.97135 | 1474 ft | 174 kts | 35° |
| 2026-05-04 15:25 | 37.96311 | 23.98093 | 1916 ft | 192 kts | 34° |
| 2026-05-04 15:25 | 37.97439 | 23.99162 | 2242 ft | 213 kts | 33° |
| 2026-05-04 15:25 | 37.98700 | 24.00358 | 2566 ft | 236 kts | 34° |
| 2026-05-04 15:26 | 38.01333 | 24.02905 | 4297 ft | 242 kts | 33° |
| 2026-05-04 15:26 | 38.02682 | 24.04208 | 5111 ft | 245 kts | 33° |
| 2026-05-04 15:26 | 38.05436 | 24.06845 | 6731 ft | 251 kts | 32° |
| 2026-05-04 15:27 | 38.06930 | 24.07960 | 7308 ft | 257 kts | 14° |
| 2026-05-04 15:27 | 38.10375 | 24.07380 | 8656 ft | 262 kts | 324° |
| 2026-05-04 15:28 | 38.12248 | 24.03374 | 10064 ft | 277 kts | 290° |
| 2026-05-04 15:28 | 38.12852 | 24.00987 | 10454 ft | 294 kts | 290° |
| 2026-05-04 15:28 | 38.14182 | 23.95719 | 11094 ft | 326 kts | 290° |
| 2026-05-04 15:29 | 38.14879 | 23.92943 | 11712 ft | 331 kts | 290° |
| 2026-05-04 15:30 | 38.19079 | 23.82158 | 13355 ft | 370 kts | 311° |
| 2026-05-04 15:30 | 38.24001 | 23.74226 | 14795 ft | 388 kts | 311° |
| 2026-05-04 15:31 | 38.27404 | 23.68808 | 15776 ft | 394 kts | 317° |
| 2026-05-04 15:31 | 38.29371 | 23.66442 | 16252 ft | 396 kts | 320° |
| 2026-05-04 15:32 | 38.35627 | 23.59341 | 17718 ft | 407 kts | 320° |
| 2026-05-04 15:32 | 38.39883 | 23.54507 | 18625 ft | 413 kts | 320° |
| 2026-05-04 15:33 | 38.44189 | 23.49582 | 19485 ft | 418 kts | 320° |
| 2026-05-04 15:34 | 38.50791 | 23.42122 | 20721 ft | 427 kts | 320° |
| 2026-05-04 15:34 | 38.53032 | 23.39614 | 21183 ft | 428 kts | 320° |
| 2026-05-04 15:34 | 38.57546 | 23.34595 | 22078 ft | 431 kts | 320° |
| 2026-05-04 15:35 | 38.62092 | 23.29546 | 22907 ft | 436 kts | 320° |
| 2026-05-04 15:35 | 38.64397 | 23.27002 | 23306 ft | 438 kts | 320° |
| 2026-05-04 15:35 | 38.66710 | 23.24450 | 23712 ft | 440 kts | 320° |
| 2026-05-04 15:36 | 38.71364 | 23.19317 | 24423 ft | 443 kts | 320° |
| 2026-05-04 15:36 | 38.73689 | 23.16749 | 25073 ft | 434 kts | 320° |
| 2026-05-04 15:36 | 38.75920 | 23.14273 | 26221 ft | 415 kts | 320° |
| 2026-05-04 15:37 | 38.78046 | 23.11900 | 27042 ft | 408 kts | 320° |
| 2026-05-04 15:37 | 38.80191 | 23.09497 | 27427 ft | 408 kts | 320° |
| 2026-05-04 15:37 | 38.82306 | 23.07106 | 28083 ft | 402 kts | 320° |
| 2026-05-04 15:37 | 38.84397 | 23.04730 | 28618 ft | 400 kts | 320° |
| 2026-05-04 15:38 | 38.86480 | 23.02357 | 29056 ft | 400 kts | 320° |
| 2026-05-04 15:38 | 38.88555 | 22.99988 | 29449 ft | 400 kts | 320° |
| 2026-05-04 15:38 | 38.90644 | 22.97604 | 29880 ft | 401 kts | 320° |
| 2026-05-04 15:38 | 38.92729 | 22.95218 | 30246 ft | 402 kts | 320° |
| 2026-05-04 15:39 | 38.94817 | 22.92825 | 30531 ft | 403 kts | 320° |
| 2026-05-04 15:39 | 38.96914 | 22.90421 | 30797 ft | 404 kts | 320° |
| 2026-05-04 15:39 | 39.01108 | 22.85622 | 31309 ft | 407 kts | 320° |
| 2026-05-04 15:40 | 39.03221 | 22.83208 | 31543 ft | 408 kts | 320° |
| 2026-05-04 15:40 | 39.05346 | 22.80782 | 31785 ft | 409 kts | 320° |
| 2026-05-04 15:40 | 39.07486 | 22.78335 | 31991 ft | 412 kts | 320° |
| 2026-05-04 15:40 | 39.09618 | 22.75894 | 32325 ft | 409 kts | 320° |
| 2026-05-04 15:41 | 39.11733 | 22.73474 | 32768 ft | 405 kts | 320° |
| 2026-05-04 15:41 | 39.13836 | 22.71070 | 33136 ft | 403 kts | 320° |
| 2026-05-04 15:41 | 39.15926 | 22.68684 | 33473 ft | 401 kts | 320° |
| 2026-05-04 15:41 | 39.18017 | 22.66301 | 33796 ft | 400 kts | 320° |
| 2026-05-04 15:42 | 39.20101 | 22.63928 | 34099 ft | 400 kts | 320° |
| 2026-05-04 15:42 | 39.22182 | 22.61560 | 34362 ft | 399 kts | 320° |
| 2026-05-04 15:42 | 39.24261 | 22.59196 | 34587 ft | 399 kts | 320° |
| 2026-05-04 15:42 | 39.26349 | 22.56825 | 34816 ft | 399 kts | 320° |
| 2026-05-04 15:43 | 39.28438 | 22.54455 | 35042 ft | 399 kts | 320° |
| 2026-05-04 15:43 | 39.30525 | 22.52087 | 35255 ft | 400 kts | 320° |
| 2026-05-04 15:43 | 39.32611 | 22.49722 | 35490 ft | 400 kts | 320° |
| 2026-05-04 15:43 | 39.34705 | 22.47340 | 35648 ft | 402 kts | 320° |
| 2026-05-04 15:44 | 39.36806 | 22.44944 | 35782 ft | 404 kts | 320° |
| 2026-05-04 15:44 | 39.38910 | 22.42550 | 36032 ft | 403 kts | 320° |
| 2026-05-04 15:44 | 39.41013 | 22.40161 | 36270 ft | 403 kts | 320° |
| 2026-05-04 15:45 | 39.43043 | 22.37856 | 36446 ft | 403 kts | 320° |
| 2026-05-04 15:45 | 39.45153 | 22.35464 | 36663 ft | 403 kts | 320° |
| 2026-05-04 15:46 | 39.47268 | 22.33068 | 36869 ft | 404 kts | 320° |
| 2026-05-04 15:46 | 39.49382 | 22.30675 | 37048 ft | 404 kts | 320° |
| 2026-05-04 15:46 | 39.51500 | 22.28280 | 37225 ft | 404 kts | 320° |
| 2026-05-04 15:46 | 39.53620 | 22.25885 | 37393 ft | 404 kts | 320° |
| 2026-05-04 15:47 | 39.55743 | 22.23487 | 37564 ft | 405 kts | 320° |
| 2026-05-04 15:47 | 39.57868 | 22.21087 | 37726 ft | 405 kts | 320° |
| 2026-05-04 15:47 | 39.60001 | 22.18681 | 37905 ft | 405 kts | 320° |
| 2026-05-04 15:47 | 39.62130 | 22.16280 | 38060 ft | 406 kts | 320° |
| 2026-05-04 15:48 | 39.64239 | 22.13904 | 38094 ft | 408 kts | 320° |
| 2026-05-04 15:48 | 39.70671 | 22.06645 | 38098 ft | 408 kts | 320° |
| 2026-05-04 15:49 | 39.74960 | 22.01795 | 38104 ft | 408 kts | 320° |
| 2026-05-04 15:49 | 39.79220 | 21.96977 | 38101 ft | 408 kts | 320° |
| 2026-05-04 15:50 | 39.83502 | 21.92128 | 38106 ft | 408 kts | 320° |
| 2026-05-04 15:50 | 39.87790 | 21.87272 | 38121 ft | 409 kts | 320° |
| 2026-05-04 15:51 | 39.92076 | 21.82401 | 38105 ft | 405 kts | 320° |
| 2026-05-04 15:51 | 39.96333 | 21.77559 | 38097 ft | 408 kts | 320° |
| 2026-05-04 15:52 | 40.00627 | 21.72676 | 38105 ft | 409 kts | 320° |
| 2026-05-04 15:52 | 40.04923 | 21.67791 | 38107 ft | 409 kts | 320° |
| 2026-05-04 15:53 | 40.08674 | 21.63522 | 38120 ft | 409 kts | 320° |
| 2026-05-04 15:53 | 40.12938 | 21.58669 | 38126 ft | 410 kts | 320° |
| 2026-05-04 15:54 | 40.17238 | 21.53760 | 38114 ft | 410 kts | 320° |
| 2026-05-04 15:54 | 40.21540 | 21.48834 | 38115 ft | 411 kts | 320° |
| 2026-05-04 15:55 | 40.25630 | 21.43583 | 38120 ft | 412 kts | 316° |
| 2026-05-04 15:55 | 40.29611 | 21.38187 | 38119 ft | 413 kts | 316° |
| 2026-05-04 15:56 | 40.33615 | 21.32782 | 38126 ft | 413 kts | 316° |
| 2026-05-04 15:56 | 40.37616 | 21.27371 | 38132 ft | 413 kts | 316° |
| 2026-05-04 15:57 | 40.41617 | 21.21950 | 38132 ft | 414 kts | 316° |
| 2026-05-04 15:57 | 40.45631 | 21.16510 | 38133 ft | 415 kts | 316° |
| 2026-05-04 15:58 | 40.49636 | 21.11056 | 38112 ft | 415 kts | 316° |
| 2026-05-04 15:58 | 40.53634 | 21.05585 | 38133 ft | 415 kts | 316° |
| 2026-05-04 15:59 | 40.57629 | 21.00118 | 38134 ft | 414 kts | 316° |
| 2026-05-04 15:59 | 40.61602 | 20.94688 | 38132 ft | 414 kts | 316° |
| 2026-05-04 16:00 | 40.65601 | 20.89200 | 38132 ft | 415 kts | 316° |
| 2026-05-04 16:00 | 40.69592 | 20.83713 | 38136 ft | 415 kts | 316° |
| 2026-05-04 16:01 | 40.73578 | 20.78225 | 38115 ft | 414 kts | 316° |
| 2026-05-04 16:01 | 40.77570 | 20.72723 | 38125 ft | 415 kts | 316° |
| 2026-05-04 16:02 | 40.81558 | 20.67221 | 38125 ft | 415 kts | 315° |
| 2026-05-04 16:03 | 40.87528 | 20.58950 | 38133 ft | 415 kts | 315° |
| 2026-05-04 16:03 | 40.91507 | 20.53425 | 38132 ft | 415 kts | 315° |
| 2026-05-04 16:04 | 40.95454 | 20.47928 | 38131 ft | 415 kts | 315° |
| 2026-05-04 16:04 | 41.01424 | 20.39616 | 38121 ft | 415 kts | 315° |
| 2026-05-04 16:05 | 41.05403 | 20.34064 | 38122 ft | 415 kts | 315° |
| 2026-05-04 16:06 | 41.11324 | 20.25758 | 38128 ft | 415 kts | 315° |
| 2026-05-04 16:07 | 41.19252 | 20.14601 | 38132 ft | 415 kts | 315° |
| 2026-05-04 16:08 | 41.27172 | 20.03443 | 38135 ft | 415 kts | 315° |
| 2026-05-04 16:09 | 41.37056 | 19.89437 | 38155 ft | 415 kts | 315° |
| 2026-05-04 16:10 | 41.44934 | 19.78244 | 38145 ft | 415 kts | 314° |
| 2026-05-04 16:11 | 41.52809 | 19.66979 | 38138 ft | 415 kts | 314° |
| 2026-05-04 16:12 | 41.64625 | 19.50020 | 38132 ft | 416 kts | 314° |
| 2026-05-04 16:13 | 41.72471 | 19.38712 | 38127 ft | 415 kts | 314° |
| 2026-05-04 16:14 | 41.78724 | 19.30340 | 38130 ft | 414 kts | 325° |
| 2026-05-04 16:16 | 41.90706 | 19.19605 | 38126 ft | 414 kts | 326° |
| 2026-05-04 16:17 | 42.02653 | 19.08858 | 38132 ft | 414 kts | 326° |
| 2026-05-04 16:18 | 42.12205 | 19.00225 | 38135 ft | 413 kts | 326° |
| 2026-05-04 16:19 | 42.24125 | 18.89420 | 38136 ft | 413 kts | 326° |
| 2026-05-04 16:20 | 42.36016 | 18.78586 | 38148 ft | 414 kts | 326° |
| 2026-05-04 16:22 | 42.47957 | 18.67656 | 38161 ft | 414 kts | 326° |
| 2026-05-04 16:23 | 42.59843 | 18.56736 | 38157 ft | 414 kts | 326° |
| 2026-05-04 16:25 | 42.74016 | 18.43625 | 38159 ft | 414 kts | 326° |
| 2026-05-04 16:26 | 42.90624 | 18.28179 | 38138 ft | 413 kts | 325° |
| 2026-05-04 16:28 | 43.02508 | 18.17083 | 38135 ft | 414 kts | 325° |
| 2026-05-04 16:29 | 43.19117 | 18.01450 | 38116 ft | 414 kts | 325° |
| 2026-05-04 16:31 | 43.30192 | 17.90979 | 38103 ft | 415 kts | 325° |
| 2026-05-04 16:32 | 43.42985 | 17.78812 | 38116 ft | 415 kts | 325° |
| 2026-05-04 16:33 | 43.52502 | 17.69726 | 38106 ft | 416 kts | 325° |
| 2026-05-04 16:34 | 43.59497 | 17.62706 | 38113 ft | 416 kts | 321° |
| 2026-05-04 16:35 | 43.72854 | 17.47375 | 38112 ft | 416 kts | 321° |
| 2026-05-04 16:36 | 43.79585 | 17.39812 | 38123 ft | 415 kts | 320° |
| 2026-05-04 16:37 | 43.86292 | 17.32205 | 38116 ft | 415 kts | 320° |
| 2026-05-04 16:38 | 43.95202 | 17.22059 | 38100 ft | 416 kts | 320° |